Time;durP1;ratioP1;P1;durP2;ratioP2;P2;SDS_P1;SDS_P2;PMS_P1;PMS_P2;Temp;Humidity;BMP_temperature;BMP_pressure;BME280_temperature;BME280_humidity;BME280_pressure;Samples;Min_cycle;Max_cycle;Signal;HPM_P1;HPM_P2
2020/12/22 00:00:53;;;;;;;;;;;21.50;35.70;;;;;;491600;240;1016;-73
2020/12/22 00:02:54;;;;;;;;;;;21.50;35.60;;;;;;491624;240;968;-73
2020/12/22 00:04:56;;;;;;;;;;;21.50;35.60;;;;;;491608;240;1141;-73
2020/12/22 00:06:57;;;;;;;;;;;21.60;35.70;;;;;;491696;240;1048;-73
2020/12/22 00:08:58;;;;;;;;;;;21.60;35.80;;;;;;491614;240;990;-73
2020/12/22 00:10:59;;;;;;;;;;;21.60;35.90;;;;;;491598;240;1043;-73
2020/12/22 00:13:01;;;;;;;;;;;21.50;35.90;;;;;;491628;240;1031;-73
2020/12/22 00:15:02;;;;;;;;;;;21.50;36.00;;;;;;491687;240;1064;-73
2020/12/22 00:17:03;;;;;;;;;;;21.50;36.00;;;;;;491651;240;2149;-73
2020/12/22 00:19:05;;;;;;;;;;;21.60;36.10;;;;;;491686;240;1134;-73
2020/12/22 00:21:06;;;;;;;;;;;21.50;36.10;;;;;;491694;240;953;-71
2020/12/22 00:23:07;;;;;;;;;;;21.50;36.10;;;;;;491713;241;1112;-71
2020/12/22 00:25:08;;;;;;;;;;;21.50;36.20;;;;;;491665;240;954;-71
2020/12/22 00:27:10;;;;;;;;;;;21.60;36.20;;;;;;491699;240;1081;-71
2020/12/22 00:29:11;;;;;;;;;;;21.60;36.30;;;;;;491651;240;983;-71
2020/12/22 00:31:12;;;;;;;;;;;21.60;36.30;;;;;;491664;240;1238;-71
2020/12/22 00:33:14;;;;;;;;;;;21.60;36.30;;;;;;491715;240;965;-71
2020/12/22 00:35:15;;;;;;;;;;;21.60;36.40;;;;;;491778;240;1112;-71
2020/12/22 00:37:16;;;;;;;;;;;21.60;36.50;;;;;;491574;240;2192;-71
2020/12/22 00:39:17;;;;;;;;;;;21.50;36.50;;;;;;491619;240;1013;-71
2020/12/22 00:41:19;;;;;;;;;;;21.50;36.50;;;;;;491621;240;1204;-71
2020/12/22 00:43:20;;;;;;;;;;;21.60;36.50;;;;;;491570;240;985;-71
2020/12/22 00:45:21;;;;;;;;;;;21.60;36.50;;;;;;491606;240;957;-71
2020/12/22 00:47:22;;;;;;;;;;;21.70;36.50;;;;;;491640;240;1149;-71
2020/12/22 00:49:24;;;;;;;;;;;21.60;36.50;;;;;;491609;240;1175;-71
2020/12/22 00:51:26;;;;;;;;;;;21.70;36.60;;;;;;491695;240;1078;-71
2020/12/22 00:53:27;;;;;;;;;;;21.70;36.50;;;;;;491627;242;1492;-71
2020/12/22 00:55:28;;;;;;;;;;;21.70;36.60;;;;;;491651;240;1065;-71
2020/12/22 00:57:29;;;;;;;;;;;21.70;36.70;;;;;;491644;240;2192;-71
2020/12/22 00:59:30;;;;;;;;;;;21.70;36.60;;;;;;491664;240;978;-71
2020/12/22 01:01:32;;;;;;;;;;;21.60;36.80;;;;;;491642;240;1347;-71
2020/12/22 01:03:33;;;;;;;;;;;21.60;36.80;;;;;;491683;240;1010;-71
2020/12/22 01:05:34;;;;;;;;;;;21.70;36.80;;;;;;491648;240;1190;-72
2020/12/22 01:07:35;;;;;;;;;;;21.70;36.80;;;;;;491654;240;1048;-71
2020/12/22 01:09:37;;;;;;;;;;;21.70;36.80;;;;;;491655;240;1054;-71
2020/12/22 01:11:38;;;;;;;;;;;21.70;36.90;;;;;;491610;240;961;-71
2020/12/22 01:13:39;;;;;;;;;;;21.70;36.90;;;;;;491691;240;1036;-71
2020/12/22 01:15:41;;;;;;;;;;;21.70;36.90;;;;;;491674;240;965;-71
2020/12/22 01:17:42;;;;;;;;;;;21.70;36.90;;;;;;491629;240;2157;-71
2020/12/22 01:19:43;;;;;;;;;;;21.70;36.90;;;;;;491634;240;1279;-71
2020/12/22 01:21:44;;;;;;;;;;;21.80;37.00;;;;;;491537;240;994;-71
2020/12/22 01:23:46;;;;;;;;;;;21.80;36.90;;;;;;491635;240;1001;-71
2020/12/22 01:25:47;;;;;;;;;;;21.80;37.00;;;;;;491641;240;1134;-71
2020/12/22 01:27:48;;;;;;;;;;;21.80;37.00;;;;;;491634;240;1001;-71
2020/12/22 01:29:50;;;;;;;;;;;21.80;36.90;;;;;;491663;240;1043;-71
2020/12/22 01:31:51;;;;;;;;;;;21.80;36.90;;;;;;491512;240;961;-71
2020/12/22 01:33:52;;;;;;;;;;;21.80;37.10;;;;;;491644;240;935;-71
2020/12/22 01:35:54;;;;;;;;;;;21.80;37.00;;;;;;491653;240;1199;-71
2020/12/22 01:37:55;;;;;;;;;;;21.90;37.10;;;;;;491643;240;2187;-71
2020/12/22 01:39:56;;;;;;;;;;;21.80;37.10;;;;;;491694;240;1115;-71
2020/12/22 01:41:58;;;;;;;;;;;21.80;37.20;;;;;;491643;240;984;-71
2020/12/22 01:43:59;;;;;;;;;;;21.90;37.20;;;;;;491746;240;960;-71
2020/12/22 01:46:00;;;;;;;;;;;21.80;37.30;;;;;;491686;240;1015;-71
2020/12/22 01:48:01;;;;;;;;;;;21.80;37.40;;;;;;491695;240;956;-71
2020/12/22 01:50:03;;;;;;;;;;;21.80;37.30;;;;;;491750;240;1385;-71
2020/12/22 01:52:04;;;;;;;;;;;21.80;37.40;;;;;;491652;240;1114;-71
2020/12/22 01:54:05;;;;;;;;;;;21.80;37.50;;;;;;491671;240;1062;-71
2020/12/22 01:56:07;;;;;;;;;;;21.80;37.50;;;;;;491580;240;943;-71
2020/12/22 01:58:08;;;;;;;;;;;21.80;37.50;;;;;;491634;240;2149;-71
2020/12/22 02:00:09;;;;;;;;;;;21.80;37.50;;;;;;491595;240;1171;-71
2020/12/22 02:02:10;;;;;;;;;;;21.80;37.60;;;;;;491579;240;1001;-71
2020/12/22 02:04:12;;;;;;;;;;;21.80;37.60;;;;;;491638;240;939;-72
2020/12/22 02:06:13;;;;;;;;;;;21.90;37.60;;;;;;491606;240;1179;-71
2020/12/22 02:08:14;;;;;;;;;;;21.80;37.50;;;;;;491647;240;1067;-71
2020/12/22 02:10:22;;;;;;;;;;;21.90;37.60;;;;;;491628;240;1022;-71
2020/12/22 02:12:23;;;;;;;;;;;21.90;37.60;;;;;;491689;240;1072;-71
2020/12/22 02:14:24;;;;;;;;;;;21.90;37.70;;;;;;491675;240;968;-71
2020/12/22 02:16:26;;;;;;;;;;;21.80;37.70;;;;;;491664;240;1198;-71
2020/12/22 02:18:27;;;;;;;;;;;21.80;37.70;;;;;;491726;240;2128;-71
2020/12/22 02:20:28;;;;;;;;;;;21.90;37.70;;;;;;491698;240;1129;-71
2020/12/22 02:22:29;;;;;;;;;;;21.90;37.70;;;;;;491615;240;1231;-71
2020/12/22 02:24:31;;;;;;;;;;;21.90;37.80;;;;;;491653;240;965;-71
2020/12/22 02:26:32;;;;;;;;;;;21.90;37.70;;;;;;491603;240;946;-71
2020/12/22 02:28:34;;;;;;;;;;;22.00;37.80;;;;;;491778;240;1291;-71
2020/12/22 02:30:35;;;;;;;;;;;22.00;37.80;;;;;;491676;240;1050;-71
2020/12/22 02:32:36;;;;;;;;;;;21.90;37.70;;;;;;491594;240;1018;-71
2020/12/22 02:34:37;;;;;;;;;;;21.90;37.80;;;;;;491679;240;1162;-71
2020/12/22 02:36:38;;;;;;;;;;;21.90;38.00;;;;;;491695;240;1131;-71
2020/12/22 02:38:40;;;;;;;;;;;21.90;38.00;;;;;;491656;240;2144;-71
2020/12/22 02:40:41;;;;;;;;;;;22.00;38.00;;;;;;491667;240;1059;-71
2020/12/22 02:42:42;;;;;;;;;;;22.00;37.90;;;;;;491649;240;953;-71
2020/12/22 02:44:44;;;;;;;;;;;22.00;37.90;;;;;;491649;240;957;-71
2020/12/22 02:46:45;;;;;;;;;;;22.00;38.00;;;;;;491635;240;1062;-71
2020/12/22 02:48:46;;;;;;;;;;;22.00;38.00;;;;;;491685;240;946;-71
2020/12/22 02:50:47;;;;;;;;;;;22.00;37.90;;;;;;491690;240;1153;-71
2020/12/22 02:52:49;;;;;;;;;;;22.00;38.00;;;;;;491630;240;1016;-71
2020/12/22 02:54:50;;;;;;;;;;;22.00;38.10;;;;;;491683;240;1329;-71
2020/12/22 02:56:51;;;;;;;;;;;22.00;38.00;;;;;;491729;240;1040;-71
2020/12/22 02:58:52;;;;;;;;;;;22.00;38.10;;;;;;491703;240;2183;-71
2020/12/22 03:00:54;;;;;;;;;;;22.00;38.20;;;;;;491745;240;1091;-71
2020/12/22 03:02:55;;;;;;;;;;;22.00;38.10;;;;;;491682;240;938;-71
2020/12/22 03:04:56;;;;;;;;;;;22.00;38.20;;;;;;491748;240;1362;-71
2020/12/22 03:06:58;;;;;;;;;;;22.00;38.20;;;;;;491645;240;1239;-71
2020/12/22 03:08:59;;;;;;;;;;;22.00;38.20;;;;;;491671;240;1117;-71
2020/12/22 03:11:00;;;;;;;;;;;22.00;38.20;;;;;;491741;240;991;-71
2020/12/22 03:13:01;;;;;;;;;;;22.00;38.20;;;;;;491623;240;977;-71
2020/12/22 03:15:03;;;;;;;;;;;22.00;38.20;;;;;;491618;240;1200;-71
2020/12/22 03:17:04;;;;;;;;;;;22.10;38.20;;;;;;491707;240;1052;-71
2020/12/22 03:19:05;;;;;;;;;;;22.00;38.10;;;;;;491665;240;2195;-71
2020/12/22 03:21:07;;;;;;;;;;;22.00;38.20;;;;;;491738;240;1167;-71
2020/12/22 03:23:08;;;;;;;;;;;22.00;38.20;;;;;;491677;240;941;-71
2020/12/22 03:25:09;;;;;;;;;;;22.00;38.20;;;;;;491626;240;1167;-71
2020/12/22 03:27:10;;;;;;;;;;;22.00;38.20;;;;;;491599;240;1045;-71
2020/12/22 03:29:12;;;;;;;;;;;22.00;38.20;;;;;;491689;240;1126;-71
2020/12/22 03:31:13;;;;;;;;;;;22.00;38.20;;;;;;491672;240;969;-71
2020/12/22 03:33:14;;;;;;;;;;;22.10;38.20;;;;;;491693;240;1196;-71
2020/12/22 03:35:15;;;;;;;;;;;22.10;38.10;;;;;;491674;240;1083;-71
2020/12/22 03:37:20;;;;;;;;;;;22.00;38.30;;;;;;491634;240;1141;-71
2020/12/22 03:39:21;;;;;;;;;;;22.00;38.30;;;;;;491626;240;2136;-71
2020/12/22 03:41:22;;;;;;;;;;;22.00;38.20;;;;;;491572;240;1038;-71
2020/12/22 03:43:24;;;;;;;;;;;22.00;38.30;;;;;;491689;240;1125;-71
2020/12/22 03:45:25;;;;;;;;;;;22.10;38.30;;;;;;491638;240;967;-71
2020/12/22 03:47:26;;;;;;;;;;;22.00;38.20;;;;;;491634;240;1014;-71
2020/12/22 03:49:28;;;;;;;;;;;22.00;38.20;;;;;;491660;240;958;-71
2020/12/22 03:51:29;;;;;;;;;;;22.00;38.30;;;;;;491592;240;1191;-71
2020/12/22 03:53:30;;;;;;;;;;;22.00;38.40;;;;;;491675;240;978;-71
2020/12/22 03:55:31;;;;;;;;;;;22.00;38.30;;;;;;491645;240;1201;-71
2020/12/22 03:57:33;;;;;;;;;;;22.10;38.30;;;;;;491692;240;1028;-71
2020/12/22 03:59:35;;;;;;;;;;;22.10;38.30;;;;;;491684;240;2195;-71
2020/12/22 04:01:36;;;;;;;;;;;22.00;38.30;;;;;;491551;240;1311;-71
2020/12/22 04:03:37;;;;;;;;;;;22.10;38.30;;;;;;491617;240;984;-71
2020/12/22 04:05:38;;;;;;;;;;;22.00;38.40;;;;;;491716;240;1186;-71
2020/12/22 04:07:40;;;;;;;;;;;22.10;38.40;;;;;;491548;240;1143;-71
2020/12/22 04:09:41;;;;;;;;;;;22.10;38.40;;;;;;491629;240;1133;-71
2020/12/22 04:11:42;;;;;;;;;;;22.10;38.40;;;;;;491722;240;1013;-71
2020/12/22 04:13:43;;;;;;;;;;;22.10;38.50;;;;;;491655;240;994;-71
2020/12/22 04:15:45;;;;;;;;;;;22.10;38.50;;;;;;491661;240;953;-71
2020/12/22 04:17:46;;;;;;;;;;;22.10;38.50;;;;;;491715;240;1031;-71
2020/12/22 04:19:47;;;;;;;;;;;22.10;38.50;;;;;;491691;240;2175;-71
2020/12/22 04:21:48;;;;;;;;;;;22.20;38.60;;;;;;491714;240;1191;-71
2020/12/22 04:23:50;;;;;;;;;;;22.10;38.60;;;;;;491653;240;1071;-71
2020/12/22 04:25:51;;;;;;;;;;;22.20;38.60;;;;;;491675;240;971;-71
2020/12/22 04:27:52;;;;;;;;;;;22.20;38.50;;;;;;491643;240;993;-71
2020/12/22 04:29:54;;;;;;;;;;;22.20;38.60;;;;;;491690;240;923;-71
2020/12/22 04:31:56;;;;;;;;;;;22.20;38.70;;;;;;491637;240;949;-71
2020/12/22 04:33:57;;;;;;;;;;;22.20;38.70;;;;;;491679;240;1133;-71
2020/12/22 04:35:59;;;;;;;;;;;22.30;38.80;;;;;;491647;240;951;-71
2020/12/22 04:38:01;;;;;;;;;;;22.20;38.90;;;;;;491732;240;1135;-71
2020/12/22 04:40:01;;;;;;;;;;;22.10;39.00;;;;;;491802;240;2120;-71
2020/12/22 04:42:02;;;;;;;;;;;22.10;39.20;;;;;;491653;240;939;-71
2020/12/22 04:44:04;;;;;;;;;;;22.10;39.30;;;;;;491715;240;985;-71
2020/12/22 04:46:05;;;;;;;;;;;22.10;39.40;;;;;;491681;240;1034;-71
2020/12/22 04:48:06;;;;;;;;;;;22.00;39.50;;;;;;491588;240;961;-71
2020/12/22 04:50:08;;;;;;;;;;;21.90;39.70;;;;;;491619;240;948;-71
2020/12/22 04:52:09;;;;;;;;;;;21.80;39.90;;;;;;491598;240;1131;-71
2020/12/22 04:54:10;;;;;;;;;;;21.70;40.20;;;;;;491613;240;959;-71
2020/12/22 04:56:11;;;;;;;;;;;21.60;40.40;;;;;;491637;240;971;-71
2020/12/22 04:58:13;;;;;;;;;;;21.50;40.60;;;;;;491623;240;2129;-71
2020/12/22 05:00:14;;;;;;;;;;;21.50;40.80;;;;;;491647;240;957;-71
2020/12/22 05:02:15;;;;;;;;;;;21.40;41.00;;;;;;491625;240;1004;-71
2020/12/22 05:04:17;;;;;;;;;;;21.30;41.10;;;;;;491661;240;1033;-72
2020/12/22 05:06:18;;;;;;;;;;;21.20;41.30;;;;;;491628;240;1094;-73
2020/12/22 05:08:19;;;;;;;;;;;21.10;41.70;;;;;;491640;240;1154;-73
2020/12/22 05:10:20;;;;;;;;;;;21.00;41.80;;;;;;491580;240;1065;-73
2020/12/22 05:12:22;;;;;;;;;;;21.00;42.00;;;;;;491695;240;1210;-73
2020/12/22 05:14:23;;;;;;;;;;;20.90;42.20;;;;;;491634;240;943;-73
2020/12/22 05:16:24;;;;;;;;;;;20.80;42.30;;;;;;491580;240;1107;-73
2020/12/22 05:18:25;;;;;;;;;;;20.80;42.40;;;;;;491615;240;2195;-73
2020/12/22 05:20:27;;;;;;;;;;;20.70;42.40;;;;;;491613;240;1050;-73
2020/12/22 05:22:28;;;;;;;;;;;20.70;42.60;;;;;;491528;240;1166;-73
2020/12/22 05:24:29;;;;;;;;;;;20.70;42.60;;;;;;491600;240;1104;-73
2020/12/22 05:26:31;;;;;;;;;;;20.60;42.80;;;;;;491590;240;951;-73
2020/12/22 05:28:32;;;;;;;;;;;20.50;43.00;;;;;;491538;240;941;-73
2020/12/22 05:30:33;;;;;;;;;;;20.40;43.10;;;;;;491548;240;958;-73
2020/12/22 05:32:34;;;;;;;;;;;20.40;43.30;;;;;;491506;240;1106;-73
2020/12/22 05:34:36;;;;;;;;;;;20.40;43.50;;;;;;491489;240;952;-73
2020/12/22 05:36:37;;;;;;;;;;;20.30;43.50;;;;;;491571;240;954;-73
2020/12/22 05:38:39;;;;;;;;;;;20.30;43.70;;;;;;491547;240;2167;-73
2020/12/22 05:40:40;;;;;;;;;;;20.20;43.70;;;;;;491562;240;975;-73
2020/12/22 05:42:41;;;;;;;;;;;20.20;43.80;;;;;;491627;240;963;-73
2020/12/22 05:44:42;;;;;;;;;;;20.20;44.00;;;;;;491564;240;1042;-73
2020/12/22 05:46:44;;;;;;;;;;;20.10;44.00;;;;;;491526;240;1112;-73
2020/12/22 05:48:45;;;;;;;;;;;20.10;44.00;;;;;;491568;240;965;-73
2020/12/22 05:50:47;;;;;;;;;;;20.10;44.20;;;;;;491547;240;931;-73
2020/12/22 05:52:48;;;;;;;;;;;20.10;44.20;;;;;;491505;240;1202;-73
2020/12/22 05:54:50;;;;;;;;;;;20.00;44.20;;;;;;491564;240;1025;-73
2020/12/22 05:56:50;;;;;;;;;;;20.00;44.30;;;;;;491511;240;1173;-73
2020/12/22 05:58:52;;;;;;;;;;;20.00;44.30;;;;;;491567;240;2145;-73
2020/12/22 06:00:53;;;;;;;;;;;20.00;44.30;;;;;;491491;240;1077;-73
2020/12/22 06:02:54;;;;;;;;;;;20.00;44.30;;;;;;491540;240;1145;-73
2020/12/22 06:04:56;;;;;;;;;;;20.10;44.30;;;;;;491489;240;952;-73
2020/12/22 06:06:57;;;;;;;;;;;20.00;44.30;;;;;;491539;240;1214;-73
2020/12/22 06:08:58;;;;;;;;;;;20.10;44.30;;;;;;491533;240;1172;-73
2020/12/22 06:10:59;;;;;;;;;;;20.00;44.30;;;;;;491506;240;949;-73
2020/12/22 06:13:01;;;;;;;;;;;20.00;44.30;;;;;;491492;240;1146;-73
2020/12/22 06:15:02;;;;;;;;;;;20.00;44.30;;;;;;491543;240;942;-73
2020/12/22 06:17:03;;;;;;;;;;;20.00;44.40;;;;;;491476;240;1176;-73
2020/12/22 06:19:04;;;;;;;;;;;20.00;44.40;;;;;;491439;240;2200;-73
2020/12/22 06:21:06;;;;;;;;;;;20.00;44.40;;;;;;491468;240;1004;-73
2020/12/22 06:23:07;;;;;;;;;;;20.00;44.50;;;;;;491519;240;1109;-73
2020/12/22 06:25:08;;;;;;;;;;;19.90;44.50;;;;;;491485;240;1063;-73
2020/12/22 06:27:09;;;;;;;;;;;19.90;44.60;;;;;;491467;240;978;-73
2020/12/22 06:29:11;;;;;;;;;;;19.90;44.70;;;;;;491541;240;961;-73
2020/12/22 06:31:12;;;;;;;;;;;19.90;44.80;;;;;;491494;240;1061;-73
2020/12/22 06:33:13;;;;;;;;;;;19.90;44.70;;;;;;491378;240;951;-73
2020/12/22 06:35:15;;;;;;;;;;;19.90;44.60;;;;;;491358;240;1010;-73
2020/12/22 06:37:16;;;;;;;;;;;19.90;44.70;;;;;;491421;240;1170;-73
2020/12/22 06:39:17;;;;;;;;;;;19.90;44.60;;;;;;491409;240;2196;-73
2020/12/22 06:41:19;;;;;;;;;;;19.90;44.70;;;;;;491477;240;986;-73
2020/12/22 06:43:20;;;;;;;;;;;19.80;44.70;;;;;;491479;240;1081;-73
2020/12/22 06:45:21;;;;;;;;;;;19.80;44.70;;;;;;491411;240;1062;-73
2020/12/22 06:47:23;;;;;;;;;;;19.80;44.90;;;;;;491470;240;1184;-72
2020/12/22 06:49:24;;;;;;;;;;;19.80;45.00;;;;;;491378;240;1110;-72
2020/12/22 06:51:25;;;;;;;;;;;19.70;45.00;;;;;;491354;240;1182;-72
2020/12/22 06:53:27;;;;;;;;;;;19.80;45.00;;;;;;491333;240;1097;-72
2020/12/22 06:55:28;;;;;;;;;;;19.80;45.00;;;;;;491382;240;952;-73
2020/12/22 06:57:29;;;;;;;;;;;19.70;44.90;;;;;;491402;240;1215;-73
2020/12/22 06:59:30;;;;;;;;;;;19.80;45.00;;;;;;491431;240;2179;-73
2020/12/22 07:01:32;;;;;;;;;;;19.70;45.10;;;;;;491366;240;1059;-73
2020/12/22 07:03:33;;;;;;;;;;;19.80;45.00;;;;;;491305;240;994;-73
2020/12/22 07:05:34;;;;;;;;;;;19.80;45.00;;;;;;491323;240;1064;-73
2020/12/22 07:07:36;;;;;;;;;;;19.80;44.90;;;;;;491425;240;970;-73
2020/12/22 07:09:37;;;;;;;;;;;19.70;45.00;;;;;;491377;240;1152;-73
2020/12/22 07:11:38;;;;;;;;;;;19.70;45.10;;;;;;491416;240;941;-73
2020/12/22 07:13:40;;;;;;;;;;;19.70;45.10;;;;;;491369;240;1092;-73
2020/12/22 07:15:41;;;;;;;;;;;19.70;45.10;;;;;;491415;240;1124;-73
2020/12/22 07:17:43;;;;;;;;;;;19.70;45.20;;;;;;491353;242;1053;-73
2020/12/22 07:19:44;;;;;;;;;;;19.70;45.20;;;;;;491402;240;2136;-73
2020/12/22 07:21:45;;;;;;;;;;;19.70;45.10;;;;;;491314;240;1030;-73
2020/12/22 07:23:46;;;;;;;;;;;19.70;45.10;;;;;;491331;238;1342;-73
2020/12/22 07:25:48;;;;;;;;;;;19.70;45.10;;;;;;491308;240;1036;-73
2020/12/22 07:27:49;;;;;;;;;;;19.70;45.10;;;;;;491531;240;1069;-73
2020/12/22 07:29:50;;;;;;;;;;;19.80;45.00;;;;;;491381;240;994;-73
2020/12/22 07:31:51;;;;;;;;;;;19.80;45.00;;;;;;491379;240;995;-73
2020/12/22 07:33:53;;;;;;;;;;;19.80;44.90;;;;;;491327;240;1041;-73
2020/12/22 07:35:54;;;;;;;;;;;19.80;44.90;;;;;;491350;240;1009;-73
2020/12/22 07:37:55;;;;;;;;;;;19.80;45.00;;;;;;491405;240;1377;-73
2020/12/22 07:39:57;;;;;;;;;;;19.70;45.10;;;;;;491284;240;2188;-73
2020/12/22 07:41:58;;;;;;;;;;;19.70;45.20;;;;;;491326;240;1143;-73
2020/12/22 07:43:59;;;;;;;;;;;19.70;45.30;;;;;;491342;240;1069;-73
2020/12/22 07:46:00;;;;;;;;;;;19.70;45.20;;;;;;491323;240;1086;-73
2020/12/22 07:48:02;;;;;;;;;;;19.70;45.20;;;;;;491237;240;1031;-73
2020/12/22 07:50:03;;;;;;;;;;;19.60;45.30;;;;;;491246;240;1253;-73
2020/12/22 07:52:04;;;;;;;;;;;19.60;45.40;;;;;;491248;240;1143;-73
2020/12/22 07:54:05;;;;;;;;;;;19.70;45.40;;;;;;491365;240;1124;-73
2020/12/22 07:56:07;;;;;;;;;;;19.60;45.30;;;;;;491212;240;1109;-73
2020/12/22 07:58:08;;;;;;;;;;;19.60;45.50;;;;;;491338;240;1026;-73
2020/12/22 08:00:09;;;;;;;;;;;19.60;45.40;;;;;;491277;240;2132;-73
2020/12/22 08:02:10;;;;;;;;;;;19.70;45.30;;;;;;491278;240;1053;-73
2020/12/22 08:04:12;;;;;;;;;;;19.70;45.50;;;;;;491339;240;1035;-73
2020/12/22 08:06:13;;;;;;;;;;;19.70;45.40;;;;;;491281;240;993;-73
2020/12/22 08:08:14;;;;;;;;;;;19.70;45.40;;;;;;491309;240;1004;-73
2020/12/22 08:10:16;;;;;;;;;;;19.60;45.40;;;;;;491284;240;1116;-73
2020/12/22 08:12:17;;;;;;;;;;;19.60;45.50;;;;;;491353;240;1012;-73
2020/12/22 08:14:18;;;;;;;;;;;19.60;45.60;;;;;;491240;240;969;-73
2020/12/22 08:16:20;;;;;;;;;;;19.60;45.60;;;;;;491254;240;957;-73
2020/12/22 08:18:21;;;;;;;;;;;19.60;45.70;;;;;;491316;240;977;-73
2020/12/22 08:20:23;;;;;;;;;;;19.60;45.60;;;;;;491162;240;2183;-73
2020/12/22 08:22:23;;;;;;;;;;;19.60;45.60;;;;;;491171;240;1504;-73
2020/12/22 08:24:25;;;;;;;;;;;19.60;45.70;;;;;;491210;238;1315;-73
2020/12/22 08:26:26;;;;;;;;;;;19.60;45.70;;;;;;491167;240;1066;-73
2020/12/22 08:28:27;;;;;;;;;;;19.60;45.70;;;;;;491158;240;956;-73
2020/12/22 08:30:29;;;;;;;;;;;19.60;45.70;;;;;;491207;240;1049;-73
2020/12/22 08:32:30;;;;;;;;;;;19.60;45.70;;;;;;491255;240;1046;-73
2020/12/22 08:34:31;;;;;;;;;;;19.60;45.70;;;;;;491337;240;963;-73
2020/12/22 08:36:34;;;;;;;;;;;19.60;45.70;;;;;;491259;240;1048;-73
2020/12/22 08:38:34;;;;;;;;;;;19.60;45.70;;;;;;491323;241;1443;-73
2020/12/22 08:40:35;;;;;;;;;;;19.60;45.80;;;;;;491164;240;2188;-73
2020/12/22 08:42:36;;;;;;;;;;;19.60;45.90;;;;;;491198;240;1281;-73
2020/12/22 08:44:39;;;;;;;;;;;19.50;46.00;;;;;;491169;240;987;-73
2020/12/22 08:46:39;;;;;;;;;;;19.60;45.90;;;;;;491159;241;1468;-73
2020/12/22 08:48:40;;;;;;;;;;;19.60;45.90;;;;;;491315;240;1103;-73
2020/12/22 08:50:42;;;;;;;;;;;19.60;45.90;;;;;;491214;240;1129;-73
2020/12/22 08:52:43;;;;;;;;;;;19.60;45.90;;;;;;491246;240;1167;-73
2020/12/22 08:54:44;;;;;;;;;;;19.60;45.90;;;;;;491173;240;1159;-73
2020/12/22 08:56:46;;;;;;;;;;;19.60;45.90;;;;;;491220;240;1056;-73
2020/12/22 08:58:47;;;;;;;;;;;19.60;46.00;;;;;;491321;240;1033;-73
2020/12/22 09:00:48;;;;;;;;;;;19.60;45.90;;;;;;491193;240;2141;-73
2020/12/22 09:02:49;;;;;;;;;;;19.60;45.90;;;;;;491262;240;988;-73
2020/12/22 09:04:51;;;;;;;;;;;19.60;45.90;;;;;;491132;240;985;-73
2020/12/22 09:06:52;;;;;;;;;;;19.60;46.00;;;;;;491244;240;1177;-73
2020/12/22 09:08:53;;;;;;;;;;;19.60;46.00;;;;;;491204;240;953;-73
2020/12/22 09:11:03;;;;;;;;;;;19.60;46.10;;;;;;491252;240;1177;-73
2020/12/22 09:13:04;;;;;;;;;;;19.60;46.00;;;;;;491290;239;1147;-73
2020/12/22 09:15:06;;;;;;;;;;;19.50;46.00;;;;;;491309;240;963;-73
2020/12/22 09:17:07;;;;;;;;;;;19.50;46.10;;;;;;491205;240;1173;-73
2020/12/22 09:19:08;;;;;;;;;;;19.50;46.20;;;;;;491178;240;1140;-73
2020/12/22 09:21:09;;;;;;;;;;;19.60;46.20;;;;;;491081;240;2145;-73
2020/12/22 09:23:11;;;;;;;;;;;19.50;46.20;;;;;;491195;240;1087;-73
2020/12/22 09:25:12;;;;;;;;;;;19.50;46.20;;;;;;491251;240;1079;-73
2020/12/22 09:27:13;;;;;;;;;;;19.50;46.20;;;;;;491135;240;1208;-73
2020/12/22 09:29:14;;;;;;;;;;;19.50;46.30;;;;;;491218;240;1012;-73
2020/12/22 09:31:16;;;;;;;;;;;19.50;46.30;;;;;;491197;240;1147;-73
2020/12/22 09:33:17;;;;;;;;;;;19.50;46.30;;;;;;491252;240;991;-73
2020/12/22 09:35:18;;;;;;;;;;;19.50;46.20;;;;;;491129;240;970;-73
2020/12/22 09:37:19;;;;;;;;;;;19.60;46.30;;;;;;491170;240;1090;-73
2020/12/22 09:39:21;;;;;;;;;;;19.60;46.20;;;;;;491109;240;1021;-73
2020/12/22 09:41:22;;;;;;;;;;;19.60;46.20;;;;;;491097;240;2205;-73
2020/12/22 09:43:23;;;;;;;;;;;19.60;46.20;;;;;;491260;240;1136;-73
2020/12/22 09:45:25;;;;;;;;;;;19.50;46.20;;;;;;491248;240;1041;-73
2020/12/22 09:47:26;;;;;;;;;;;19.60;46.30;;;;;;491199;240;1172;-73
2020/12/22 09:49:27;;;;;;;;;;;19.60;46.30;;;;;;491156;240;1059;-73
2020/12/22 09:51:29;;;;;;;;;;;19.50;46.30;;;;;;491118;240;1199;-73
2020/12/22 09:53:30;;;;;;;;;;;19.60;46.30;;;;;;491268;240;969;-73
2020/12/22 09:55:31;;;;;;;;;;;19.50;46.30;;;;;;491226;240;1131;-73
2020/12/22 09:57:33;;;;;;;;;;;19.50;46.40;;;;;;491249;240;1296;-73
2020/12/22 09:59:34;;;;;;;;;;;19.60;46.30;;;;;;491138;240;1321;-73
2020/12/22 10:01:35;;;;;;;;;;;19.60;46.30;;;;;;491048;240;2188;-73
2020/12/22 10:03:36;;;;;;;;;;;19.50;46.30;;;;;;491263;240;1139;-73
2020/12/22 10:05:38;;;;;;;;;;;19.60;46.30;;;;;;491281;240;1180;-73
2020/12/22 10:07:39;;;;;;;;;;;19.60;46.10;;;;;;491181;240;1292;-73
2020/12/22 10:09:40;;;;;;;;;;;19.60;46.20;;;;;;491338;240;1314;-73
2020/12/22 10:11:42;;;;;;;;;;;19.60;46.10;;;;;;491226;240;1165;-73
2020/12/22 10:13:43;;;;;;;;;;;19.60;46.20;;;;;;491132;240;1137;-73
2020/12/22 10:15:45;;;;;;;;;;;19.60;46.20;;;;;;491080;240;1326;-73
2020/12/22 10:17:46;;;;;;;;;;;19.60;46.20;;;;;;491129;240;1200;-73
2020/12/22 10:19:47;;;;;;;;;;;19.60;46.20;;;;;;490999;240;1021;-73
2020/12/22 10:21:49;;;;;;;;;;;19.60;46.10;;;;;;490960;240;2112;-73
2020/12/22 10:23:50;;;;;;;;;;;19.60;46.10;;;;;;490957;240;1021;-72
2020/12/22 10:25:51;;;;;;;;;;;19.60;46.20;;;;;;490961;240;1246;-73
2020/12/22 10:27:53;;;;;;;;;;;19.60;46.30;;;;;;490990;240;1093;-73
2020/12/22 10:29:54;;;;;;;;;;;19.60;46.10;;;;;;490935;240;1030;-73
2020/12/22 10:31:55;;;;;;;;;;;19.60;46.00;;;;;;491022;240;1156;-71
2020/12/22 10:33:57;;;;;;;;;;;19.70;46.00;;;;;;491022;240;1083;-73
2020/12/22 10:35:58;;;;;;;;;;;19.70;45.90;;;;;;490990;240;1173;-73
2020/12/22 10:37:59;;;;;;;;;;;19.70;46.00;;;;;;490971;240;1177;-73
2020/12/22 10:40:01;;;;;;;;;;;19.60;46.00;;;;;;490997;240;1062;-73
2020/12/22 10:42:02;;;;;;;;;;;19.60;46.10;;;;;;490990;240;2183;-73
2020/12/22 10:44:03;;;;;;;;;;;19.60;46.10;;;;;;491069;240;1078;-73
2020/12/22 10:46:05;;;;;;;;;;;19.60;46.10;;;;;;491004;240;1291;-73
2020/12/22 10:48:06;;;;;;;;;;;19.60;46.20;;;;;;491052;240;1220;-73
2020/12/22 10:50:07;;;;;;;;;;;19.60;46.20;;;;;;491086;240;1287;-73
2020/12/22 10:52:08;;;;;;;;;;;19.60;46.10;;;;;;491179;240;1134;-73
2020/12/22 10:54:10;;;;;;;;;;;19.70;46.20;;;;;;491284;240;1149;-73
2020/12/22 10:56:11;;;;;;;;;;;19.60;46.10;;;;;;491214;240;1324;-73
2020/12/22 10:58:12;;;;;;;;;;;19.60;46.20;;;;;;491095;240;1047;-73
2020/12/22 11:00:14;;;;;;;;;;;19.60;46.40;;;;;;491080;240;2192;-73
2020/12/22 11:02:15;;;;;;;;;;;19.50;46.40;;;;;;491179;240;1099;-73
2020/12/22 11:04:16;;;;;;;;;;;19.60;46.40;;;;;;491314;240;1044;-74
2020/12/22 11:06:27;;;;;;;;;;;19.60;46.30;;;;;;491242;240;1214;-73
2020/12/22 11:08:22;;;;;;;;;;;19.60;46.30;;;;;;491017;242;1442;-73
2020/12/22 11:10:24;;;;;;;;;;;19.60;46.40;;;;;;491106;240;1067;-73
2020/12/22 11:12:24;;;;;;;;;;;19.60;46.40;;;;;;491101;241;1872;-73
2020/12/22 11:14:25;;;;;;;;;;;19.60;46.40;;;;;;491294;240;1224;-73
2020/12/22 11:16:27;;;;;;;;;;;19.60;46.40;;;;;;491275;240;1027;-73
2020/12/22 11:18:28;;;;;;;;;;;19.60;46.50;;;;;;491261;240;1163;-73
2020/12/22 11:20:29;;;;;;;;;;;19.60;46.60;;;;;;491189;240;2188;-73
2020/12/22 11:22:31;;;;;;;;;;;19.60;46.60;;;;;;491280;240;1289;-73
2020/12/22 11:24:32;;;;;;;;;;;19.60;46.70;;;;;;491286;240;1031;-73
2020/12/22 11:26:33;;;;;;;;;;;19.70;46.50;;;;;;491255;240;1176;-73
2020/12/22 11:28:34;;;;;;;;;;;19.60;46.60;;;;;;491330;240;1215;-73
2020/12/22 11:30:36;;;;;;;;;;;19.60;46.50;;;;;;491269;240;1085;-74
2020/12/22 11:32:37;;;;;;;;;;;19.60;46.60;;;;;;491164;240;1185;-73
2020/12/22 11:34:38;;;;;;;;;;;19.60;46.60;;;;;;491185;240;1060;-73
2020/12/22 11:36:40;;;;;;;;;;;19.60;46.60;;;;;;491193;240;1385;-73
2020/12/22 11:38:41;;;;;;;;;;;19.60;46.60;;;;;;491329;240;1003;-73
2020/12/22 11:40:42;;;;;;;;;;;19.60;46.60;;;;;;491236;240;2179;-73
2020/12/22 11:42:43;;;;;;;;;;;19.50;46.70;;;;;;491206;240;1311;-73
2020/12/22 11:44:45;;;;;;;;;;;19.60;46.80;;;;;;491145;240;1076;-73
2020/12/22 11:46:46;;;;;;;;;;;19.60;46.80;;;;;;491204;240;1218;-73
2020/12/22 11:48:47;;;;;;;;;;;19.60;46.80;;;;;;491238;240;1168;-73
2020/12/22 11:50:49;;;;;;;;;;;19.60;46.80;;;;;;491378;240;1304;-74
2020/12/22 11:52:50;;;;;;;;;;;19.50;46.90;;;;;;491232;240;1207;-73
2020/12/22 11:54:51;;;;;;;;;;;19.50;47.00;;;;;;491257;240;1050;-73
2020/12/22 11:56:53;;;;;;;;;;;19.60;47.00;;;;;;491198;240;1259;-73
2020/12/22 11:58:54;;;;;;;;;;;19.60;47.00;;;;;;491046;240;1087;-73